createdAt,value
2023-04-08T00:01:32.986Z,101453.78
2023-04-08T00:04:03.259Z,101451.75
2023-04-08T00:06:33.455Z,101450.31
2023-04-08T00:09:03.610Z,101453.44
2023-04-08T00:11:33.939Z,101447.19
2023-04-08T00:14:04.335Z,101447.31
2023-04-08T00:16:37.141Z,101441.31
2023-04-08T00:19:07.351Z,101442.41
2023-04-08T00:21:37.458Z,101445.88
2023-04-08T00:24:08.298Z,101458.13
2023-04-08T00:26:38.414Z,101456.78
2023-04-08T00:29:08.877Z,101457.75
2023-04-08T00:31:41.769Z,101446.94
2023-04-08T00:34:11.804Z,101443.13
2023-04-08T00:36:41.914Z,101449.81
2023-04-08T00:39:11.986Z,101443.69
2023-04-08T00:41:42.050Z,101444.31
2023-04-08T00:44:12.050Z,101444.19
2023-04-08T00:46:44.793Z,101441.31
2023-04-08T00:49:14.967Z,101444.19
2023-04-08T00:51:45.030Z,101443.13
2023-04-08T00:54:15.187Z,101448.03
2023-04-08T00:56:47.277Z,101459.66
2023-04-08T00:59:18.051Z,101456.91
2023-04-08T01:01:58.393Z,101446.97
2023-04-08T01:04:36.314Z,101457.75
2023-04-08T01:07:13.335Z,101457.97
2023-04-08T01:09:48.777Z,101453.53
2023-04-08T01:12:25.686Z,101469.38
2023-04-08T01:14:58.754Z,101466.50
2023-04-08T01:17:33.366Z,101466.28
2023-04-08T01:20:06.285Z,101463.00
2023-04-08T01:22:44.773Z,101473.56
2023-04-08T01:25:30.243Z,101468.91
2023-04-08T01:28:04.689Z,101464.47
2023-04-08T01:30:37.232Z,101468.09
2023-04-08T01:33:09.234Z,101465.66
2023-04-08T01:35:39.596Z,101462.88
2023-04-08T01:38:11.936Z,101473.84
2023-04-08T01:40:44.108Z,101465.41
2023-04-08T01:43:19.071Z,101484.63
2023-04-08T01:45:50.597Z,101461.94
2023-04-08T01:48:21.998Z,101459.44
2023-04-08T01:50:52.771Z,101454.41
2023-04-08T01:53:26.170Z,101461.00
2023-04-08T01:56:01.252Z,101462.19
2023-04-08T01:58:39.541Z,101470.34
2023-04-08T02:01:14.962Z,101481.16
2023-04-08T02:03:47.340Z,101479.22
2023-04-08T02:06:22.981Z,101496.75
2023-04-08T02:08:59.265Z,101485.09
2023-04-08T02:11:29.485Z,101496.00
2023-04-08T02:14:03.682Z,101498.41
2023-04-08T02:16:42.912Z,101498.16
2023-04-08T02:19:18.896Z,101498.03
2023-04-08T02:21:55.472Z,101491.66
2023-04-08T02:24:25.924Z,101490.25
2023-04-08T02:26:58.052Z,101492.88
2023-04-08T02:29:34.540Z,101491.09
2023-04-08T02:32:06.984Z,101496.13
2023-04-08T02:34:40.516Z,101493.00
2023-04-08T02:37:11.524Z,101497.94
2023-04-08T02:39:41.685Z,101497.84
2023-04-08T02:42:14.176Z,101511.16
2023-04-08T02:44:46.833Z,101506.34
2023-04-08T02:47:17.085Z,101508.88
2023-04-08T02:49:47.712Z,101514.75
2023-04-08T02:52:17.729Z,101504.19
2023-04-08T02:54:47.731Z,101514.75
2023-04-08T02:57:18.226Z,101520.03
2023-04-08T02:59:50.903Z,101522.06
2023-04-08T03:02:21.283Z,101517.50
2023-04-08T03:05:01.770Z,101524.09
2023-04-08T03:07:31.856Z,101520.84
2023-04-08T03:10:01.898Z,101522.28
2023-04-08T03:12:32.180Z,101522.16
2023-04-08T03:15:04.864Z,101525.63
2023-04-08T03:17:35.741Z,101532.84
2023-04-08T03:20:07.190Z,101535.34
2023-04-08T03:22:37.536Z,101531.75
2023-04-08T03:25:08.349Z,101528.16
2023-04-08T03:27:38.441Z,101535.94
2023-04-08T03:30:11.922Z,101538.72
2023-04-08T03:32:42.190Z,101539.78
2023-04-08T03:35:12.890Z,101541.72
2023-04-08T03:37:42.994Z,101541.84
2023-04-08T03:40:14.801Z,101542.94
2023-04-08T03:42:47.227Z,101540.16
2023-04-08T03:45:19.889Z,101545.31
2023-04-08T03:47:49.952Z,101550.34
2023-04-08T03:50:20.046Z,101552.16
2023-04-08T03:52:50.215Z,101549.41
2023-04-08T03:55:20.371Z,101552.88
2023-04-08T03:57:50.476Z,101553.25
2023-04-08T04:00:23.248Z,101556.97
2023-04-08T04:02:53.383Z,101553.38
2023-04-08T04:05:23.651Z,101550.59
2023-04-08T04:07:53.662Z,101554.78
2023-04-08T04:10:23.757Z,101560.31
2023-04-08T04:12:53.763Z,101572.56
2023-04-08T04:15:26.597Z,101572.94
2023-04-08T04:17:56.754Z,101580.97
2023-04-08T04:20:26.848Z,101575.81
2023-04-08T04:22:56.969Z,101579.06
2023-04-08T04:25:27.498Z,101580.50
2023-04-08T04:27:57.829Z,101577.59
2023-04-08T04:30:30.959Z,101583.97
2023-04-08T04:33:00.997Z,101589.00
2023-04-08T04:35:31.328Z,101591.41
2023-04-08T04:38:01.780Z,101591.53
2023-04-08T04:40:32.009Z,101597.78
2023-04-08T04:43:02.070Z,101599.44
2023-04-08T04:45:34.914Z,101610.25
2023-04-08T04:48:05.173Z,101606.78
2023-04-08T04:50:35.475Z,101611.22
2023-04-08T04:53:05.660Z,101613.50
2023-04-08T04:55:37.528Z,101615.88
2023-04-08T04:58:08.879Z,101620.22
2023-04-08T05:00:41.590Z,101620.34
2023-04-08T05:03:11.793Z,101623.97
2023-04-08T05:05:42.047Z,101623.34
2023-04-08T05:08:12.156Z,101621.66
2023-04-08T05:10:44.866Z,101619.13
2023-04-08T05:13:15.052Z,101626.22
2023-04-08T05:15:48.557Z,101624.66
2023-04-08T05:18:18.759Z,101614.81
2023-04-08T05:20:52.253Z,101619.63
2023-04-08T05:23:46.035Z,101631.63
2023-04-08T05:26:16.609Z,101626.00
2023-04-08T05:28:46.723Z,101634.16
2023-04-08T05:31:24.807Z,101635.81
2023-04-08T05:33:54.854Z,101648.91
2023-04-08T05:36:24.851Z,101649.50
2023-04-08T05:38:54.960Z,101648.53
2023-04-08T05:41:25.021Z,101665.47
2023-04-08T05:43:55.049Z,101665.59
2023-04-08T05:46:27.687Z,101666.44
2023-04-08T05:48:57.819Z,101666.44
2023-04-08T05:51:28.062Z,101663.31
2023-04-08T05:54:01.211Z,101658.28
2023-04-08T05:56:32.344Z,101667.41
2023-04-08T05:59:02.515Z,101662.00
2023-04-08T06:01:43.346Z,101671.47
2023-04-08T06:04:18.949Z,101671.97
2023-04-08T06:06:49.264Z,101676.78
2023-04-08T06:09:19.376Z,101672.53
2023-04-08T06:11:50.868Z,101680.00
2023-04-08T06:14:21.417Z,101679.38
2023-04-08T06:17:04.367Z,101684.16
2023-04-08T06:19:34.668Z,101677.28
2023-04-08T06:22:04.813Z,101685.19
2023-04-08T06:24:35.069Z,101694.19
2023-04-08T06:27:06.821Z,101687.69
2023-04-08T06:29:42.448Z,101696.31
2023-04-08T06:32:18.655Z,101697.28
2023-04-08T06:34:48.868Z,101698.97
2023-04-08T06:37:19.262Z,101706.19
2023-04-08T06:39:49.530Z,101706.47
2023-04-08T06:42:19.955Z,101707.28
2023-04-08T06:45:11.933Z,101711.38
2023-04-08T06:47:50.840Z,101715.31
2023-04-08T06:50:20.954Z,101719.63
2023-04-08T06:52:53.032Z,101726.81
2023-04-08T06:55:23.332Z,101719.94
2023-04-08T06:57:53.578Z,101724.72
2023-04-08T07:00:35.348Z,101733.25
2023-04-08T07:03:25.908Z,101732.03
2023-04-08T07:05:56.079Z,101736.41
2023-04-08T07:08:26.214Z,101738.66
2023-04-08T07:10:56.795Z,101740.34
2023-04-08T07:13:26.999Z,101744.69
2023-04-08T07:15:58.972Z,101745.13
2023-04-08T07:18:34.989Z,101748.97
2023-04-08T07:21:05.263Z,101756.97
2023-04-08T07:23:35.409Z,101759.94
2023-04-08T07:26:08.344Z,101763.69
2023-04-08T07:28:38.955Z,101762.53
2023-04-08T07:31:16.242Z,101768.16
2023-04-08T07:33:49.274Z,101765.38
2023-04-08T07:36:19.397Z,101765.94
2023-04-08T07:38:49.863Z,101763.63
2023-04-08T07:41:20.054Z,101766.38
2023-04-08T07:43:50.267Z,101769.72
2023-04-08T07:46:20.781Z,101772.63
2023-04-08T07:48:53.667Z,101769.91
2023-04-08T07:51:24.074Z,101775.47
2023-04-08T07:53:54.150Z,101773.88
2023-04-08T07:56:26.494Z,101781.00
2023-04-08T07:58:56.900Z,101777.28
2023-04-08T08:01:30.027Z,101784.25
2023-04-08T08:04:03.594Z,101783.03
2023-04-08T08:06:56.280Z,101782.13
2023-04-08T08:09:30.177Z,101787.09
2023-04-08T08:12:05.006Z,101789.38
2023-04-08T08:14:38.183Z,101782.34
2023-04-08T08:17:08.356Z,101790.59
2023-04-08T08:19:41.515Z,101787.28
2023-04-08T08:22:20.803Z,101787.19
2023-04-08T08:24:51.487Z,101789.44
2023-04-08T08:27:21.891Z,101792.81
2023-04-08T08:29:52.492Z,101801.34
2023-04-08T08:32:26.772Z,101806.22
2023-04-08T08:34:59.606Z,101804.69
2023-04-08T08:37:29.637Z,101813.06
2023-04-08T08:40:02.557Z,101813.34
2023-04-08T08:42:34.405Z,101808.16
2023-04-08T08:45:05.435Z,101814.91
2023-04-08T08:47:39.167Z,101819.94
2023-04-08T08:50:12.916Z,101819.44
2023-04-08T08:52:50.872Z,101816.44
2023-04-08T08:55:39.439Z,101822.53
2023-04-08T08:58:19.592Z,101818.19
2023-04-08T09:00:52.680Z,101820.00
2023-04-08T09:03:24.860Z,101820.25
2023-04-08T09:05:59.678Z,101827.06
2023-04-08T09:08:31.633Z,101827.03
2023-04-08T09:11:16.459Z,101839.22
2023-04-08T09:13:49.325Z,101835.03
2023-04-08T09:16:23.539Z,101837.41
2023-04-08T09:18:53.956Z,101846.47
2023-04-08T09:21:27.644Z,101850.56
2023-04-08T09:24:00.899Z,101847.56
2023-04-08T09:26:31.047Z,101852.75
2023-04-08T09:29:14.366Z,101852.31
2023-04-08T09:31:58.966Z,101854.72
2023-04-08T09:34:36.587Z,101861.69
2023-04-08T09:37:09.350Z,101860.16
2023-04-08T09:39:39.516Z,101860.47
2023-04-08T09:42:13.603Z,101871.94
2023-04-08T09:44:49.916Z,101869.66
2023-04-08T09:47:29.156Z,101865.63
2023-04-08T09:50:06.085Z,101868.84
2023-04-08T09:52:47.526Z,101870.19
2023-04-08T09:55:21.795Z,101867.88
2023-04-08T09:57:56.834Z,101863.69
2023-04-08T10:00:31.945Z,101862.38
2023-04-08T10:03:10.096Z,101853.63
2023-04-08T10:05:41.792Z,101860.31
2023-04-08T10:08:14.722Z,101868.09
2023-04-08T10:10:47.950Z,101866.00
2023-04-08T10:13:19.221Z,101870.56
2023-04-08T10:15:49.576Z,101868.00
2023-04-08T10:18:36.767Z,101872.16
2023-04-08T10:21:07.192Z,101868.00
2023-04-08T10:24:06.492Z,101869.50
2023-04-08T10:26:38.713Z,101876.53
2023-04-08T10:29:36.810Z,101867.31
2023-04-08T10:32:07.100Z,101865.72
2023-04-08T10:34:37.298Z,101858.56
2023-04-08T10:37:18.381Z,101858.47
2023-04-08T10:40:00.355Z,101871.03
2023-04-08T10:42:32.756Z,101866.56
2023-04-08T10:45:06.341Z,101871.09
2023-04-08T10:47:38.853Z,101867.66
2023-04-08T10:50:16.988Z,101868.34
2023-04-08T10:52:51.008Z,101866.81
2023-04-08T10:55:28.900Z,101873.25
2023-04-08T10:58:08.130Z,101868.88
2023-04-08T11:00:40.408Z,101872.66
2023-04-08T11:03:15.909Z,101866.53
2023-04-08T11:05:47.760Z,101867.09
2023-04-08T11:08:21.087Z,101868.34
2023-04-08T11:10:55.024Z,101866.47
2023-04-08T11:13:25.523Z,101874.34
2023-04-08T11:16:17.312Z,101874.59
2023-04-08T11:18:52.089Z,101864.16
2023-04-08T11:21:22.632Z,101870.25
2023-04-08T11:23:56.067Z,101864.84
2023-04-08T11:26:30.702Z,101868.63
2023-04-08T11:29:01.282Z,101865.53
2023-04-08T11:31:32.833Z,101867.16
2023-04-08T11:34:03.324Z,101877.00
2023-04-08T11:36:35.534Z,101876.91
2023-04-08T11:39:19.424Z,101878.06
2023-04-08T11:41:53.440Z,101873.53
2023-04-08T11:44:23.572Z,101877.75
2023-04-08T11:47:02.261Z,101873.94
2023-04-08T11:49:47.187Z,101876.94
2023-04-08T11:52:17.630Z,101873.25
2023-04-08T11:54:47.959Z,101876.44
2023-04-08T11:57:32.975Z,101876.88
2023-04-08T12:00:03.641Z,101867.91
2023-04-08T12:02:41.251Z,101863.97
2023-04-08T12:05:12.578Z,101862.41
2023-04-08T12:07:43.198Z,101870.53
2023-04-08T12:10:14.185Z,101875.84
2023-04-08T12:12:47.167Z,101866.50
2023-04-08T12:15:17.437Z,101869.75
2023-04-08T12:17:51.216Z,101870.03
2023-04-08T12:20:29.959Z,101878.25
2023-04-08T12:23:03.568Z,101867.19
2023-04-08T12:25:34.520Z,101866.22
2023-04-08T12:28:12.788Z,101874.59
2023-04-08T12:30:43.004Z,101878.94
2023-04-08T12:33:16.630Z,101867.63
2023-04-08T12:35:47.296Z,101873.19
2023-04-08T12:38:18.016Z,101875.25
2023-04-08T12:40:50.175Z,101865.16
2023-04-08T12:43:23.807Z,101864.84
2023-04-08T12:45:57.290Z,101875.84
2023-04-08T12:48:29.581Z,101869.72
2023-04-08T12:50:59.700Z,101865.34
2023-04-08T12:53:30.293Z,101859.59
2023-04-08T12:56:00.563Z,101856.44
2023-04-08T12:58:33.400Z,101863.50
2023-04-08T13:01:03.740Z,101866.84
2023-04-08T13:03:35.322Z,101851.91
2023-04-08T13:06:05.526Z,101855.16
2023-04-08T13:08:36.329Z,101848.47
2023-04-08T13:11:06.537Z,101859.41
2023-04-08T13:13:39.512Z,101864.19
2023-04-08T13:16:11.006Z,101846.91
2023-04-08T13:18:41.347Z,101850.75
2023-04-08T13:21:11.826Z,101847.63
2023-04-08T13:23:42.577Z,101853.22
2023-04-08T13:26:12.682Z,101855.81
2023-04-08T13:28:56.607Z,101857.09
2023-04-08T13:31:27.777Z,101851.03
2023-04-08T13:33:58.497Z,101843.88
2023-04-08T13:36:29.795Z,101846.81
2023-04-08T13:39:01.575Z,101842.00
2023-04-08T13:41:31.860Z,101849.13
2023-04-08T13:44:04.766Z,101843.94
2023-04-08T13:46:35.092Z,101846.88
2023-04-08T13:49:06.274Z,101845.66
2023-04-08T13:51:37.732Z,101843.22
2023-04-08T13:54:07.959Z,101844.56
2023-04-08T13:56:38.322Z,101838.69
2023-04-08T13:59:11.411Z,101839.19
2023-04-08T14:01:41.625Z,101839.56
2023-04-08T14:04:13.648Z,101838.00
2023-04-08T14:06:43.955Z,101839.72
2023-04-08T14:09:14.057Z,101830.81
2023-04-08T14:11:47.139Z,101829.97
2023-04-08T14:14:20.107Z,101834.22
2023-04-08T14:17:05.129Z,101829.78
2023-04-08T14:19:35.920Z,101833.63
2023-04-08T14:22:08.353Z,101836.16
2023-04-08T14:24:39.086Z,101836.53
2023-04-08T14:27:10.520Z,101831.47
2023-04-08T14:29:43.549Z,101826.25
2023-04-08T14:32:14.153Z,101824.69
2023-04-08T14:34:44.902Z,101835.16
2023-04-08T14:37:15.292Z,101833.00
2023-04-08T14:39:48.483Z,101831.22
2023-04-08T14:42:18.784Z,101826.25
2023-04-08T14:44:51.882Z,101828.44
2023-04-08T14:47:22.000Z,101820.38
2023-04-08T14:49:52.177Z,101822.44
2023-04-08T14:52:23.359Z,101822.81
2023-04-08T14:54:53.933Z,101828.69
2023-04-08T14:57:24.099Z,101823.03
2023-04-08T14:59:57.168Z,101828.56
2023-04-08T15:02:28.729Z,101824.38
2023-04-08T15:04:59.053Z,101829.41
2023-04-08T15:07:35.114Z,101821.06
2023-04-08T15:10:05.446Z,101820.03
2023-04-08T15:12:36.554Z,101825.22
2023-04-08T15:15:11.238Z,101827.38
2023-04-08T15:17:41.366Z,101830.44
2023-04-08T15:20:13.591Z,101815.22
2023-04-08T15:22:43.739Z,101820.88
2023-04-08T15:25:14.319Z,101818.53
2023-04-08T15:27:45.132Z,101819.03
2023-04-08T15:30:24.439Z,101821.03
2023-04-08T15:32:57.386Z,101819.50
2023-04-08T15:35:27.891Z,101822.47
2023-04-08T15:37:58.228Z,101827.19
2023-04-08T15:40:28.665Z,101824.19
2023-04-08T15:42:59.153Z,101828.22
2023-04-08T15:45:31.970Z,101820.03
2023-04-08T15:48:02.546Z,101828.38
2023-04-08T15:50:32.933Z,101837.56
2023-04-08T15:53:03.185Z,101831.66
2023-04-08T15:55:33.395Z,101833.81
2023-04-08T15:58:03.478Z,101831.09
2023-04-08T16:00:36.409Z,101832.44
2023-04-08T16:03:23.602Z,101834.16
2023-04-08T16:05:53.783Z,101831.44
2023-04-08T16:08:25.743Z,101833.38
2023-04-08T16:10:55.981Z,101830.03
2023-04-08T16:13:26.804Z,101830.19
2023-04-08T16:15:59.704Z,101833.66
2023-04-08T16:18:30.634Z,101835.50
2023-04-08T16:21:00.888Z,101831.28
2023-04-08T16:23:34.408Z,101833.94
2023-04-08T16:26:08.234Z,101836.09
2023-04-08T16:28:40.139Z,101837.09
2023-04-08T16:31:12.961Z,101846.19
2023-04-08T16:33:43.693Z,101855.63
2023-04-08T16:36:13.909Z,101853.94
2023-04-08T16:38:44.012Z,101854.88
2023-04-08T16:41:16.491Z,101859.19
2023-04-08T16:43:47.390Z,101863.34
2023-04-08T16:46:25.362Z,101865.47
2023-04-08T16:48:57.190Z,101872.56
2023-04-08T16:51:27.939Z,101885.03
2023-04-08T16:54:00.814Z,101878.13
2023-04-08T16:56:31.601Z,101882.06
2023-04-08T16:59:01.751Z,101884.59
2023-04-08T17:01:34.510Z,101900.19
2023-04-08T17:04:04.678Z,101893.91
2023-04-08T17:06:35.989Z,101901.44
2023-04-08T17:09:06.772Z,101911.50
2023-04-08T17:11:36.907Z,101918.31
2023-04-08T17:14:07.527Z,101922.22
2023-04-08T17:16:40.465Z,101926.50
2023-04-08T17:19:11.467Z,101938.22
2023-04-08T17:21:42.911Z,101943.88
2023-04-08T17:24:13.205Z,101942.94
2023-04-08T17:26:44.525Z,101939.25
2023-04-08T17:29:14.620Z,101944.25
2023-04-08T17:31:47.371Z,101944.59
2023-04-08T17:34:18.273Z,101947.88
2023-04-08T17:36:48.555Z,101953.94
2023-04-08T17:39:18.805Z,101957.19
2023-04-08T17:41:49.121Z,101965.91
2023-04-08T17:44:19.407Z,101971.69
2023-04-08T17:46:52.503Z,101977.75
2023-04-08T17:49:23.180Z,101984.34
2023-04-08T17:51:53.695Z,101979.69
2023-04-08T17:54:46.505Z,101987.63
2023-04-08T17:57:18.074Z,101995.09
2023-04-08T17:59:48.520Z,102006.31
2023-04-08T18:02:39.968Z,101999.34
2023-04-08T18:05:11.879Z,102008.59
2023-04-08T18:07:42.073Z,102011.13
2023-04-08T18:10:13.076Z,102015.47
2023-04-08T18:12:43.125Z,102014.88
2023-04-08T18:15:14.344Z,102024.75
2023-04-08T18:17:49.697Z,102023.56
2023-04-08T18:20:23.548Z,102032.94
2023-04-08T18:22:53.678Z,102034.03
2023-04-08T18:25:26.573Z,102037.91
2023-04-08T18:27:58.461Z,102041.63
2023-04-08T18:30:30.277Z,102050.06
2023-04-08T18:33:03.233Z,102056.19
2023-04-08T18:35:33.323Z,102047.63
2023-04-08T18:38:03.678Z,102054.00
2023-04-08T18:40:34.124Z,102061.34
2023-04-08T18:43:08.837Z,102066.06
2023-04-08T18:45:45.828Z,102071.00
2023-04-08T18:48:28.348Z,102074.00
2023-04-08T18:51:10.274Z,102080.41
2023-04-08T18:53:46.599Z,102078.94
2023-04-08T18:56:21.397Z,102076.53
2023-04-08T18:58:59.001Z,102075.34
2023-04-08T19:01:32.791Z,102078.00
2023-04-08T19:04:12.981Z,102073.75
2023-04-08T19:07:22.259Z,102088.34
2023-04-08T19:09:59.972Z,102089.91
2023-04-08T19:12:36.322Z,102092.69
2023-04-08T19:15:07.318Z,102092.91
2023-04-08T19:17:40.706Z,102095.56
2023-04-08T19:20:18.859Z,102096.53
2023-04-08T19:22:50.527Z,102109.91
2023-04-08T19:25:24.342Z,102101.94
2023-04-08T19:28:01.634Z,102098.22
2023-04-08T19:30:52.444Z,102097.50
2023-04-08T19:33:33.182Z,102095.19
2023-04-08T19:36:08.054Z,102091.22
2023-04-08T19:38:44.480Z,102096.03
2023-04-08T19:41:32.386Z,102091.94
2023-04-08T19:44:04.405Z,102093.03
2023-04-08T19:46:34.658Z,102101.09
2023-04-08T19:49:08.186Z,102098.19
2023-04-08T19:52:07.524Z,102104.00
2023-04-08T19:54:38.183Z,102106.03
2023-04-08T19:57:17.372Z,102094.59
2023-04-08T19:59:50.062Z,102106.16
2023-04-08T20:02:26.822Z,102101.47
2023-04-08T20:05:04.881Z,102108.66
2023-04-08T20:07:42.021Z,102105.19
2023-04-08T20:10:13.488Z,102106.38
2023-04-08T20:12:43.878Z,102109.41
2023-04-08T20:15:25.136Z,102110.84
2023-04-08T20:17:56.777Z,102104.47
2023-04-08T20:20:31.961Z,102106.16
2023-04-08T20:23:09.300Z,102106.88
2023-04-08T20:25:42.879Z,102108.34
2023-04-08T20:28:19.013Z,102110.25
2023-04-08T20:30:49.885Z,102106.91
2023-04-08T20:33:31.178Z,102120.13
2023-04-08T20:36:08.607Z,102111.59
2023-04-08T20:38:46.905Z,102110.75
2023-04-08T20:41:28.502Z,102109.28
2023-04-08T20:44:36.012Z,102109.28
2023-04-08T20:47:09.423Z,102110.63
2023-04-08T20:49:49.437Z,102107.84
2023-04-08T20:52:19.729Z,102113.13
2023-04-08T20:55:02.378Z,102112.19
2023-04-08T20:57:42.499Z,102110.03
2023-04-08T21:00:16.829Z,102113.28
2023-04-08T21:02:50.532Z,102115.78
2023-04-08T21:05:22.133Z,102113.16
2023-04-08T21:07:52.256Z,102114.81
2023-04-08T21:10:25.236Z,102117.84
2023-04-08T21:13:03.603Z,102121.00
2023-04-08T21:15:41.124Z,102114.09
2023-04-08T21:18:17.018Z,102117.00
2023-04-08T21:20:52.710Z,102121.22
2023-04-08T21:23:22.967Z,102120.13
2023-04-08T21:26:03.468Z,102114.47
2023-04-08T21:28:36.339Z,102119.66
2023-04-08T21:31:12.790Z,102117.84
2023-04-08T21:33:48.537Z,102117.00
2023-04-08T21:36:21.343Z,102121.56
2023-04-08T21:38:54.828Z,102115.66
2023-04-08T21:41:30.618Z,102114.81
2023-04-08T21:44:00.888Z,102113.03
2023-04-08T21:46:33.988Z,102112.06
2023-04-08T21:49:06.531Z,102119.66
2023-04-08T21:51:38.655Z,102115.28
2023-04-08T21:54:13.763Z,102112.16
2023-04-08T21:56:47.386Z,102112.88
2023-04-08T21:59:18.856Z,102114.31
2023-04-08T22:01:49.297Z,102110.50
2023-04-08T22:04:19.845Z,102111.09
2023-04-08T22:06:51.355Z,102113.63
2023-04-08T22:09:22.351Z,102106.16
2023-04-08T22:11:55.028Z,102111.56
2023-04-08T22:14:25.178Z,102105.41
2023-04-08T22:16:55.338Z,102111.47
2023-04-08T22:19:25.829Z,102098.94
2023-04-08T22:21:56.106Z,102103.16
2023-04-08T22:24:27.891Z,102095.31
2023-04-08T22:27:01.275Z,102094.81
2023-04-08T22:29:31.393Z,102094.59
2023-04-08T22:32:01.482Z,102095.44
2023-04-08T22:34:31.531Z,102091.69
2023-04-08T22:37:01.625Z,102098.56
2023-04-08T22:39:31.655Z,102091.41
2023-04-08T22:42:04.382Z,102090.44
2023-04-08T22:44:34.573Z,102087.66
2023-04-08T22:47:04.704Z,102083.16
2023-04-08T22:49:35.056Z,102082.91
2023-04-08T22:52:05.178Z,102088.75
2023-04-08T22:54:35.413Z,102086.59
2023-04-08T22:57:08.161Z,102080.69
2023-04-08T22:59:38.295Z,102073.22
2023-04-08T23:02:08.559Z,102072.91
2023-04-08T23:04:38.744Z,102076.00
2023-04-08T23:07:09.048Z,102080.78
2023-04-08T23:09:39.114Z,102080.25
2023-04-08T23:12:11.838Z,102083.34
2023-04-08T23:14:42.221Z,102085.59
2023-04-08T23:17:12.271Z,102084.22
2023-04-08T23:19:42.559Z,102089.63
2023-04-08T23:22:12.707Z,102085.63
2023-04-08T23:24:43.002Z,102078.16
2023-04-08T23:27:15.662Z,102075.72
2023-04-08T23:29:45.738Z,102084.00
2023-04-08T23:32:16.043Z,102080.31
2023-04-08T23:34:46.126Z,102081.56
2023-04-08T23:37:16.204Z,102074.72
2023-04-08T23:39:46.321Z,102078.31
2023-04-08T23:42:18.989Z,102073.25
2023-04-08T23:44:50.442Z,102076.09
2023-04-08T23:47:20.571Z,102074.84
2023-04-08T23:49:50.654Z,102073.50
2023-04-08T23:52:20.770Z,102080.38
2023-04-08T23:54:53.113Z,102076.44
2023-04-08T23:57:25.863Z,102080.25
2023-04-08T23:59:55.905Z,102087.44
